createdAt,value
2022-10-12T00:02:10.333Z,14.98
2022-10-12T00:04:39.360Z,15.19
2022-10-12T00:07:08.610Z,14.89
2022-10-12T00:09:39.499Z,14.98
2022-10-12T00:12:09.710Z,14.98
2022-10-12T00:14:39.843Z,14.70
2022-10-12T00:17:08.841Z,14.80
2022-10-12T00:19:37.587Z,14.69
2022-10-12T00:22:07.066Z,14.68
2022-10-12T00:24:39.317Z,14.67
2022-10-12T00:27:11.019Z,14.88
2022-10-12T00:29:41.217Z,14.68
2022-10-12T00:32:11.047Z,15.03
2022-10-12T00:34:40.967Z,14.76
2022-10-12T00:37:10.670Z,14.31
2022-10-12T00:39:39.236Z,14.71
2022-10-12T00:42:08.280Z,14.74
2022-10-12T00:44:45.137Z,14.84
2022-10-12T00:47:24.183Z,14.62
2022-10-12T00:50:17.091Z,14.31
2022-10-12T00:52:53.944Z,14.22
2022-10-12T00:55:25.293Z,14.40
2022-10-12T00:57:55.728Z,14.53
2022-10-12T01:00:24.655Z,14.21
2022-10-12T01:02:54.454Z,14.36
2022-10-12T01:05:24.796Z,14.25
2022-10-12T01:07:55.441Z,14.31
2022-10-12T01:10:25.492Z,14.30
2022-10-12T01:12:55.885Z,14.29
2022-10-12T01:15:34.261Z,14.44
2022-10-12T01:18:28.160Z,14.26
2022-10-12T01:21:07.937Z,14.27
2022-10-12T01:23:54.973Z,14.23
2022-10-12T01:26:30.073Z,14.32
2022-10-12T01:29:25.929Z,14.22
2022-10-12T01:32:10.932Z,14.42
2022-10-12T01:34:52.632Z,14.05
2022-10-12T01:37:28.605Z,14.22
2022-10-12T01:40:00.227Z,14.26
2022-10-12T01:42:40.566Z,14.30
2022-10-12T01:45:19.232Z,14.17
2022-10-12T01:47:53.735Z,14.23
2022-10-12T01:50:22.846Z,14.27
2022-10-12T01:52:54.599Z,14.60
2022-10-12T01:55:41.187Z,14.72
2022-10-12T01:58:13.189Z,14.47
2022-10-12T02:00:47.098Z,14.32
2022-10-12T02:03:23.202Z,14.31
2022-10-12T02:06:13.687Z,14.53
2022-10-12T02:08:51.084Z,14.30
2022-10-12T02:11:24.340Z,14.06
2022-10-12T02:14:03.476Z,14.07
2022-10-12T02:16:38.270Z,14.44
2022-10-12T02:19:08.230Z,14.26
2022-10-12T02:21:36.384Z,14.22
2022-10-12T02:24:07.036Z,14.18
2022-10-12T02:26:36.604Z,14.20
2022-10-12T02:29:06.831Z,14.35
2022-10-12T02:31:57.042Z,14.25
2022-10-12T02:34:45.469Z,14.26
2022-10-12T02:37:25.972Z,14.18
2022-10-12T02:39:57.136Z,14.19
2022-10-12T02:42:41.908Z,14.22
2022-10-12T02:45:19.959Z,14.31
2022-10-12T02:47:50.340Z,14.42
2022-10-12T02:50:18.391Z,14.31
2022-10-12T02:52:49.782Z,14.36
2022-10-12T02:55:17.931Z,14.15
2022-10-12T02:57:46.222Z,14.09
2022-10-12T03:00:14.857Z,13.72
2022-10-12T03:02:42.783Z,14.33
2022-10-12T03:05:11.004Z,13.97
2022-10-12T03:07:40.455Z,14.02
2022-10-12T03:10:08.841Z,14.25
2022-10-12T03:12:39.550Z,13.96
2022-10-12T03:15:10.764Z,13.95
2022-10-12T03:17:38.877Z,13.98
2022-10-12T03:20:07.560Z,14.20
2022-10-12T03:22:35.247Z,13.97
2022-10-12T03:25:06.161Z,14.00
2022-10-12T03:27:34.653Z,13.74
2022-10-12T03:30:02.171Z,13.90
2022-10-12T03:32:29.990Z,13.91
2022-10-12T03:34:58.112Z,13.97
2022-10-12T03:37:25.884Z,13.75
2022-10-12T03:39:54.761Z,13.68
2022-10-12T03:42:22.595Z,13.91
2022-10-12T03:44:50.531Z,13.91
2022-10-12T03:47:18.548Z,13.80
2022-10-12T03:49:45.997Z,13.66
2022-10-12T03:52:14.963Z,13.84
2022-10-12T03:54:43.162Z,13.60
2022-10-12T03:57:10.977Z,13.85
2022-10-12T03:59:38.552Z,14.05
2022-10-12T04:02:06.953Z,13.59
2022-10-12T04:04:35.593Z,13.56
2022-10-12T04:07:03.722Z,13.44
2022-10-12T04:09:33.143Z,13.63
2022-10-12T04:12:01.309Z,13.80
2022-10-12T04:14:29.487Z,13.79
2022-10-12T04:16:57.541Z,13.75
2022-10-12T04:19:25.650Z,13.77
2022-10-12T04:21:53.400Z,13.61
2022-10-12T04:24:22.895Z,13.66
2022-10-12T04:26:51.882Z,13.87
2022-10-12T04:29:19.808Z,13.77
2022-10-12T04:31:47.407Z,13.53
2022-10-12T04:34:15.556Z,13.66
2022-10-12T04:36:43.124Z,13.55
2022-10-12T04:39:10.648Z,13.68
2022-10-12T04:41:39.775Z,13.82
2022-10-12T04:44:08.517Z,13.66
2022-10-12T04:46:36.301Z,13.60
2022-10-12T04:49:04.575Z,14.10
2022-10-12T04:51:32.503Z,13.72
2022-10-12T04:54:00.269Z,13.55
2022-10-12T04:56:28.837Z,13.60
2022-10-12T04:58:56.382Z,13.35
2022-10-12T05:01:23.952Z,13.46
2022-10-12T05:03:52.013Z,13.37
2022-10-12T05:06:19.772Z,13.44
2022-10-12T05:08:47.568Z,13.63
2022-10-12T05:11:15.487Z,13.75
2022-10-12T05:13:43.175Z,13.60
2022-10-12T05:16:10.921Z,13.31
2022-10-12T05:18:38.960Z,13.26
2022-10-12T05:21:06.931Z,13.35
2022-10-12T05:23:37.361Z,13.35
2022-10-12T05:26:06.191Z,13.52
2022-10-12T05:28:39.846Z,13.48
2022-10-12T05:31:08.897Z,13.57
2022-10-12T05:33:36.971Z,13.69
2022-10-12T05:36:05.140Z,13.67
2022-10-12T05:38:33.036Z,13.94
2022-10-12T05:41:01.113Z,13.98
2022-10-12T05:43:29.329Z,13.81
2022-10-12T05:45:57.961Z,14.01
2022-10-12T05:48:26.149Z,14.01
2022-10-12T05:50:54.958Z,14.18
2022-10-12T05:53:23.822Z,14.41
2022-10-12T05:55:55.197Z,14.66
2022-10-12T05:58:23.631Z,14.78
2022-10-12T06:00:51.520Z,15.10
2022-10-12T06:03:22.929Z,15.05
2022-10-12T06:05:53.272Z,15.01
2022-10-12T06:08:21.554Z,15.35
2022-10-12T06:10:51.456Z,15.51
2022-10-12T06:13:19.865Z,15.77
2022-10-12T06:15:48.521Z,15.98
2022-10-12T06:18:16.918Z,16.03
2022-10-12T06:21:03.998Z,15.92
2022-10-12T06:23:41.233Z,16.25
2022-10-12T06:26:09.179Z,16.36
2022-10-12T06:28:37.003Z,16.53
2022-10-12T06:31:05.679Z,16.63
2022-10-12T06:33:33.665Z,16.83
2022-10-12T06:36:01.309Z,16.92
2022-10-12T06:38:29.409Z,16.94
2022-10-12T06:40:57.087Z,17.09
2022-10-12T06:43:25.190Z,17.33
2022-10-12T06:45:53.812Z,17.20
2022-10-12T06:48:21.828Z,17.17
2022-10-12T06:50:50.157Z,17.27
2022-10-12T06:53:20.772Z,17.33
2022-10-12T06:55:49.109Z,17.37
2022-10-12T06:58:16.714Z,17.32
2022-10-12T07:00:44.754Z,17.64
2022-10-12T07:03:13.405Z,17.61
2022-10-12T07:05:41.142Z,17.83
2022-10-12T07:08:09.138Z,17.87
2022-10-12T07:10:37.018Z,17.88
2022-10-12T07:13:05.594Z,17.96
2022-10-12T07:15:33.581Z,17.91
2022-10-12T07:18:01.151Z,17.94
2022-10-12T07:20:28.866Z,18.21
2022-10-12T07:22:57.173Z,18.12
2022-10-12T07:25:25.308Z,18.17
2022-10-12T07:27:53.275Z,18.05
2022-10-12T07:30:21.330Z,17.92
2022-10-12T07:32:49.375Z,18.10
2022-10-12T07:35:17.147Z,18.30
2022-10-12T07:37:45.958Z,18.25
2022-10-12T07:40:13.695Z,18.36
2022-10-12T07:42:59.217Z,18.35
2022-10-12T07:45:29.879Z,18.54
2022-10-12T07:47:57.987Z,18.65
2022-10-12T07:50:26.150Z,18.64
2022-10-12T07:52:54.784Z,18.41
2022-10-12T07:55:22.477Z,18.29
2022-10-12T07:57:50.030Z,18.38
2022-10-12T08:00:17.981Z,18.44
2022-10-12T08:02:46.327Z,18.51
2022-10-12T08:05:13.792Z,18.56
2022-10-12T08:07:41.806Z,18.76
2022-10-12T08:10:10.559Z,18.98
2022-10-12T08:12:38.830Z,19.27
2022-10-12T08:15:07.155Z,19.09
2022-10-12T08:17:34.909Z,19.21
2022-10-12T08:20:02.653Z,19.13
2022-10-12T08:22:30.497Z,19.16
2022-10-12T08:24:58.646Z,19.18
2022-10-12T08:27:26.259Z,19.18
2022-10-12T08:29:53.742Z,19.15
2022-10-12T08:32:21.659Z,19.38
2022-10-12T08:34:49.477Z,19.34
2022-10-12T08:37:17.160Z,19.48
2022-10-12T08:39:44.976Z,19.50
2022-10-12T08:42:33.595Z,19.68
2022-10-12T08:45:25.508Z,19.82
2022-10-12T08:48:00.646Z,19.85
2022-10-12T08:50:38.581Z,19.69
2022-10-12T08:53:23.172Z,19.64
2022-10-12T08:55:52.811Z,19.86
2022-10-12T08:58:40.702Z,19.97
2022-10-12T09:01:22.264Z,19.97
2022-10-12T09:03:52.795Z,19.85
2022-10-12T09:06:23.409Z,20.02
2022-10-12T09:09:03.891Z,20.08
2022-10-12T09:11:59.271Z,20.01
2022-10-12T09:14:36.106Z,20.09
2022-10-12T09:17:38.265Z,20.08
2022-10-12T09:20:14.486Z,19.94
2022-10-12T09:22:45.744Z,19.90
2022-10-12T09:25:15.960Z,19.98
2022-10-12T09:27:46.870Z,20.06
2022-10-12T09:30:16.874Z,20.26
2022-10-12T09:32:56.050Z,20.18
2022-10-12T09:35:24.684Z,20.35
2022-10-12T09:37:54.006Z,20.12
2022-10-12T09:40:31.136Z,20.25
2022-10-12T09:43:01.285Z,20.28
2022-10-12T09:45:31.363Z,20.08
2022-10-12T09:48:21.841Z,20.25
2022-10-12T09:50:57.858Z,20.49
2022-10-12T09:53:34.668Z,20.48
2022-10-12T09:56:10.770Z,20.71
2022-10-12T09:58:53.702Z,20.66
2022-10-12T10:01:25.503Z,20.84
2022-10-12T10:04:10.141Z,21.06
2022-10-12T10:06:40.267Z,21.10
2022-10-12T10:09:26.330Z,21.23
2022-10-12T10:11:54.307Z,21.40
2022-10-12T10:14:22.581Z,21.34
2022-10-12T10:16:51.909Z,21.45
2022-10-12T10:19:22.212Z,21.51
2022-10-12T10:21:50.181Z,21.72
2022-10-12T10:24:25.932Z,21.65
2022-10-12T10:26:59.836Z,21.60
2022-10-12T10:29:30.417Z,21.66
2022-10-12T10:32:26.634Z,21.58
2022-10-12T10:35:22.583Z,21.96
2022-10-12T10:38:01.129Z,21.74
2022-10-12T10:40:31.302Z,21.54
2022-10-12T10:43:04.169Z,21.91
2022-10-12T10:45:43.368Z,22.05
2022-10-12T10:48:16.895Z,21.91
2022-10-12T10:50:56.661Z,21.92
2022-10-12T10:53:26.743Z,21.77
2022-10-12T10:56:02.941Z,21.87
2022-10-12T10:58:45.894Z,22.12
2022-10-12T11:01:16.928Z,21.96
2022-10-12T11:03:47.096Z,21.53
2022-10-12T11:06:33.314Z,21.43
2022-10-12T11:09:19.443Z,21.65
2022-10-12T11:11:54.565Z,21.62
2022-10-12T11:14:27.847Z,21.87
2022-10-12T11:17:20.575Z,22.05
2022-10-12T11:20:17.330Z,22.04
2022-10-12T11:22:54.308Z,22.15
2022-10-12T11:25:28.453Z,22.22
2022-10-12T11:27:56.301Z,22.07
2022-10-12T11:30:27.236Z,21.92
2022-10-12T11:33:01.630Z,22.07
2022-10-12T11:35:34.664Z,22.09
2022-10-12T11:38:15.461Z,22.11
2022-10-12T11:41:09.194Z,22.19
2022-10-12T11:43:55.774Z,22.15
2022-10-12T11:46:43.366Z,22.30
2022-10-12T11:49:22.989Z,22.20
2022-10-12T11:51:51.664Z,22.03
2022-10-12T11:54:28.172Z,22.26
2022-10-12T11:56:59.263Z,22.37
2022-10-12T11:59:35.059Z,22.24
2022-10-12T12:02:12.008Z,22.38
2022-10-12T12:04:44.314Z,22.41
2022-10-12T12:07:39.253Z,22.48
2022-10-12T12:10:26.702Z,22.71
2022-10-12T12:13:13.213Z,22.77
2022-10-12T12:16:13.143Z,22.78
2022-10-12T12:19:11.245Z,22.76
2022-10-12T12:22:13.670Z,22.51
2022-10-12T12:24:52.302Z,22.75
2022-10-12T12:27:22.206Z,22.51
2022-10-12T12:29:51.888Z,22.79
2022-10-12T12:32:20.411Z,22.90
2022-10-12T12:34:56.638Z,22.91
2022-10-12T12:37:32.155Z,22.86
2022-10-12T12:40:00.027Z,22.74
2022-10-12T12:42:32.202Z,22.46
2022-10-12T12:45:39.348Z,22.71
2022-10-12T12:48:10.943Z,22.75
2022-10-12T12:50:39.035Z,22.82
2022-10-12T12:53:13.605Z,22.62
2022-10-12T12:55:53.401Z,22.77
2022-10-12T12:58:49.770Z,22.78
2022-10-12T13:01:27.709Z,22.56
2022-10-12T13:04:14.346Z,22.85
2022-10-12T13:06:57.580Z,23.04
2022-10-12T13:09:25.587Z,23.25
2022-10-12T13:12:34.366Z,23.32
2022-10-12T13:15:12.632Z,23.32
2022-10-12T13:17:50.795Z,23.26
2022-10-12T13:20:21.872Z,23.31
2022-10-12T13:22:50.537Z,23.27
2022-10-12T13:25:33.754Z,23.30
2022-10-12T13:28:04.369Z,23.28
2022-10-12T13:30:46.998Z,22.94
2022-10-12T13:33:32.354Z,23.21
2022-10-12T13:36:08.174Z,22.95
2022-10-12T13:38:38.658Z,22.67
2022-10-12T13:41:10.163Z,22.68
2022-10-12T13:43:53.063Z,22.77
2022-10-12T13:46:46.984Z,23.01
2022-10-12T13:49:18.018Z,22.68
2022-10-12T13:51:54.842Z,22.55
2022-10-12T13:54:26.400Z,22.64
2022-10-12T13:57:03.567Z,22.66
2022-10-12T13:59:36.505Z,22.55
2022-10-12T14:02:22.494Z,22.72
2022-10-12T14:04:53.847Z,22.65
2022-10-12T14:07:44.941Z,22.73
2022-10-12T14:10:19.130Z,22.96
2022-10-12T14:12:49.735Z,22.80
2022-10-12T14:15:17.715Z,22.85
2022-10-12T14:17:48.250Z,23.13
2022-10-12T14:20:37.650Z,22.62
2022-10-12T14:23:20.527Z,22.73
2022-10-12T14:25:54.120Z,22.65
2022-10-12T14:28:36.937Z,22.61
2022-10-12T14:31:04.476Z,22.26
2022-10-12T14:33:33.127Z,22.32
2022-10-12T14:36:22.339Z,22.24
2022-10-12T14:38:52.500Z,21.99
2022-10-12T14:41:36.300Z,22.14
2022-10-12T14:44:16.213Z,22.07
2022-10-12T14:46:54.227Z,22.08
2022-10-12T14:49:25.252Z,22.15
2022-10-12T14:51:55.069Z,22.09
2022-10-12T14:54:22.854Z,22.18
2022-10-12T14:56:50.906Z,22.12
2022-10-12T14:59:18.549Z,22.11
2022-10-12T15:01:51.258Z,21.81
2022-10-12T15:04:19.197Z,21.96
2022-10-12T15:06:51.079Z,21.84
2022-10-12T15:09:18.850Z,21.88
2022-10-12T15:11:46.685Z,21.87
2022-10-12T15:14:15.057Z,21.69
2022-10-12T15:16:42.887Z,21.69
2022-10-12T15:19:11.784Z,21.60
2022-10-12T15:21:40.234Z,21.38
2022-10-12T15:24:12.821Z,21.27
2022-10-12T15:26:43.807Z,21.22
2022-10-12T15:29:11.996Z,20.74
2022-10-12T15:31:40.496Z,20.69
2022-10-12T15:34:13.696Z,20.36
2022-10-12T15:36:42.233Z,20.52
2022-10-12T15:39:11.249Z,20.26
2022-10-12T15:41:39.734Z,20.14
2022-10-12T15:44:11.269Z,20.16
2022-10-12T15:46:42.345Z,19.75
2022-10-12T15:49:12.661Z,19.76
2022-10-12T15:51:49.730Z,19.75
2022-10-12T15:54:17.370Z,19.85
2022-10-12T15:56:46.078Z,19.40
2022-10-12T15:59:14.711Z,19.88
2022-10-12T16:01:45.104Z,19.84
2022-10-12T16:04:15.770Z,20.04
2022-10-12T16:06:43.776Z,20.17
2022-10-12T16:09:11.939Z,20.19
2022-10-12T16:11:39.715Z,20.08
2022-10-12T16:14:11.169Z,20.07
2022-10-12T16:16:41.792Z,20.08
2022-10-12T16:19:09.734Z,20.15
2022-10-12T16:21:38.008Z,19.98
2022-10-12T16:24:06.317Z,20.04
2022-10-12T16:26:33.824Z,19.88
2022-10-12T16:29:02.024Z,19.68
2022-10-12T16:31:30.626Z,19.65
2022-10-12T16:33:58.960Z,19.72
2022-10-12T16:36:26.618Z,19.75
2022-10-12T16:38:54.866Z,19.60
2022-10-12T16:41:22.459Z,19.64
2022-10-12T16:43:50.301Z,19.32
2022-10-12T16:46:18.297Z,19.38
2022-10-12T16:48:46.137Z,19.31
2022-10-12T16:51:13.793Z,19.24
2022-10-12T16:53:42.516Z,19.38
2022-10-12T16:56:10.246Z,19.02
2022-10-12T16:58:37.732Z,18.58
2022-10-12T17:01:13.006Z,18.80
2022-10-12T17:03:40.636Z,18.74
2022-10-12T17:06:09.455Z,18.76
2022-10-12T17:08:39.306Z,18.69
2022-10-12T17:11:08.904Z,18.58
2022-10-12T17:13:38.563Z,18.79
2022-10-12T17:16:27.040Z,18.72
2022-10-12T17:18:59.189Z,18.60
2022-10-12T17:21:27.890Z,17.85
2022-10-12T17:23:59.657Z,18.25
2022-10-12T17:26:27.804Z,18.30
2022-10-12T17:28:55.627Z,18.33
2022-10-12T17:31:24.148Z,18.33
2022-10-12T17:33:52.434Z,18.29
2022-10-12T17:36:22.330Z,18.14
2022-10-12T17:38:57.905Z,18.25
2022-10-12T17:41:26.470Z,18.11
2022-10-12T17:43:55.430Z,17.86
2022-10-12T17:46:23.201Z,17.76
2022-10-12T17:48:51.073Z,17.64
2022-10-12T17:51:19.312Z,17.78
2022-10-12T17:53:47.256Z,17.77
2022-10-12T17:56:17.098Z,17.69
2022-10-12T17:58:45.349Z,17.67
2022-10-12T18:01:15.941Z,17.42
2022-10-12T18:03:46.774Z,16.98
2022-10-12T18:06:17.610Z,16.96
2022-10-12T18:08:46.502Z,17.11
2022-10-12T18:11:15.503Z,16.56
2022-10-12T18:13:51.300Z,16.79
2022-10-12T18:16:24.673Z,16.87
2022-10-12T18:18:55.121Z,17.16
2022-10-12T18:21:27.052Z,17.14
2022-10-12T18:24:02.385Z,17.09
2022-10-12T18:26:33.537Z,17.07
2022-10-12T18:29:02.952Z,17.00
2022-10-12T18:31:33.413Z,16.97
2022-10-12T18:34:04.058Z,16.99
2022-10-12T18:36:33.963Z,16.95
2022-10-12T18:39:03.516Z,16.54
2022-10-12T18:41:31.282Z,16.64
2022-10-12T18:44:02.693Z,16.63
2022-10-12T18:46:34.600Z,16.80
2022-10-12T18:49:09.461Z,16.35
2022-10-12T18:51:40.593Z,16.32
2022-10-12T18:54:13.438Z,16.30
2022-10-12T18:56:42.101Z,16.36
2022-10-12T18:59:11.792Z,16.11
2022-10-12T19:01:42.003Z,16.12
2022-10-12T19:04:11.546Z,16.07
2022-10-12T19:06:42.826Z,16.08
2022-10-12T19:09:14.237Z,15.88
2022-10-12T19:11:42.938Z,15.70
2022-10-12T19:14:14.428Z,15.85
2022-10-12T19:16:43.376Z,15.85
2022-10-12T19:19:19.670Z,15.83
2022-10-12T19:21:51.332Z,15.64
2022-10-12T19:24:21.734Z,15.49
2022-10-12T19:26:51.345Z,15.73
2022-10-12T19:29:21.114Z,15.74
2022-10-12T19:31:50.584Z,15.77
2022-10-12T19:34:20.950Z,15.44
2022-10-12T19:36:49.027Z,15.65
2022-10-12T19:39:20.397Z,15.62
2022-10-12T19:41:49.793Z,15.47
2022-10-12T19:44:19.178Z,15.36
2022-10-12T19:46:52.350Z,15.62
2022-10-12T19:49:24.113Z,15.21
2022-10-12T19:51:51.821Z,15.44
2022-10-12T19:54:20.135Z,15.35
2022-10-12T19:56:48.611Z,15.30
2022-10-12T19:59:16.653Z,15.19
2022-10-12T20:01:48.114Z,15.25
2022-10-12T20:04:17.487Z,15.09
2022-10-12T20:06:45.727Z,15.06
2022-10-12T20:09:15.290Z,15.05
2022-10-12T20:11:44.199Z,15.17
2022-10-12T20:14:12.220Z,15.12
2022-10-12T20:16:42.713Z,14.96
2022-10-12T20:19:13.377Z,14.69
2022-10-12T20:21:42.779Z,14.66
2022-10-12T20:24:12.549Z,14.89
2022-10-12T20:26:41.643Z,14.60
2022-10-12T20:29:10.697Z,14.77
2022-10-12T20:31:39.331Z,14.72
2022-10-12T20:34:07.571Z,14.76
2022-10-12T20:36:35.514Z,14.66
2022-10-12T20:39:03.793Z,14.81
2022-10-12T20:41:31.608Z,14.58
2022-10-12T20:44:00.514Z,14.41
2022-10-12T20:46:29.670Z,14.66
2022-10-12T20:48:59.365Z,14.52
2022-10-12T20:51:30.951Z,14.46
2022-10-12T20:54:00.605Z,14.31
2022-10-12T20:56:30.843Z,14.52
2022-10-12T20:58:59.915Z,14.44
2022-10-12T21:01:31.143Z,14.59
2022-10-12T21:03:58.786Z,14.32
2022-10-12T21:06:29.326Z,14.25
2022-10-12T21:08:58.328Z,14.33
2022-10-12T21:11:26.866Z,14.15
2022-10-12T21:13:55.468Z,13.86
2022-10-12T21:16:24.222Z,13.97
2022-10-12T21:18:56.509Z,14.26
2022-10-12T21:21:26.334Z,14.23
2022-10-12T21:23:56.884Z,14.25
2022-10-12T21:26:26.559Z,14.29
2022-10-12T21:28:55.959Z,14.07
2022-10-12T21:31:28.220Z,13.97
2022-10-12T21:34:07.444Z,13.98
2022-10-12T21:36:36.549Z,13.92
2022-10-12T21:39:10.195Z,14.06
2022-10-12T21:41:37.700Z,13.62
2022-10-12T21:44:07.691Z,13.69
2022-10-12T21:46:36.408Z,13.68
2022-10-12T21:49:08.055Z,13.78
2022-10-12T21:51:36.774Z,14.07
2022-10-12T21:54:06.059Z,13.73
2022-10-12T21:56:36.060Z,13.55
2022-10-12T21:59:05.125Z,13.73
2022-10-12T22:01:39.879Z,13.73
2022-10-12T22:04:12.844Z,13.52
2022-10-12T22:06:43.324Z,13.67
2022-10-12T22:09:19.218Z,13.31
2022-10-12T22:11:53.904Z,13.46
2022-10-12T22:14:24.204Z,13.67
2022-10-12T22:16:58.945Z,13.46
2022-10-12T22:19:31.740Z,13.22
2022-10-12T22:22:01.487Z,13.43
2022-10-12T22:24:35.869Z,13.48
2022-10-12T22:27:06.185Z,13.10
2022-10-12T22:29:35.908Z,13.48
2022-10-12T22:32:10.167Z,13.60
2022-10-12T22:34:43.171Z,13.59
2022-10-12T22:37:12.617Z,13.80
2022-10-12T22:39:47.460Z,13.69
2022-10-12T22:42:16.541Z,13.59
2022-10-12T22:44:47.649Z,13.43
2022-10-12T22:47:16.507Z,13.39
2022-10-12T22:49:46.373Z,13.27
2022-10-12T22:52:16.079Z,13.68
2022-10-12T22:54:46.345Z,13.46
2022-10-12T22:57:17.703Z,13.36
2022-10-12T22:59:47.675Z,13.49
2022-10-12T23:02:20.563Z,13.55
2022-10-12T23:04:50.358Z,13.33
2022-10-12T23:07:23.011Z,13.23
2022-10-12T23:09:52.719Z,13.01
2022-10-12T23:12:23.127Z,13.06
2022-10-12T23:14:54.935Z,13.25
2022-10-12T23:17:24.559Z,13.20
2022-10-12T23:19:58.450Z,13.13
2022-10-12T23:22:30.244Z,13.17
2022-10-12T23:25:01.033Z,13.12
2022-10-12T23:27:33.473Z,13.16
2022-10-12T23:30:05.800Z,12.88
2022-10-12T23:32:36.105Z,12.93
2022-10-12T23:35:08.429Z,12.83
2022-10-12T23:37:44.034Z,13.05
2022-10-12T23:40:16.712Z,12.93
2022-10-12T23:42:45.841Z,12.99
2022-10-12T23:45:17.414Z,12.60
2022-10-12T23:47:51.074Z,12.68
2022-10-12T23:50:20.422Z,12.79
2022-10-12T23:52:51.343Z,12.68
2022-10-12T23:55:22.990Z,12.58
2022-10-12T23:57:53.585Z,12.52
